sensor_id;sensor_type;location;lat;lon;timestamp;pressure;altitude;pressure_sealevel;temperature;humidity
17936;BME280;9093;52.062;4.508;2023-01-25T00:00:17;104177.09;;;3.18;76.24
17936;BME280;9093;52.062;4.508;2023-01-25T00:02:58;104169.16;;;3.18;75.86
17936;BME280;9093;52.062;4.508;2023-01-25T00:05:38;104174.44;;;3.18;76.11
17936;BME280;9093;52.062;4.508;2023-01-25T00:08:18;104161.19;;;3.17;75.89
17936;BME280;9093;52.062;4.508;2023-01-25T00:11:00;104156.78;;;3.16;76.07
17936;BME280;9093;52.062;4.508;2023-01-25T00:13:40;104154.16;;;3.17;76.25
17936;BME280;9093;52.062;4.508;2023-01-25T00:16:21;104155.00;;;3.16;75.77
17936;BME280;9093;52.062;4.508;2023-01-25T00:19:03;104152.38;;;3.16;75.89
17936;BME280;9093;52.062;4.508;2023-01-25T00:21:44;104146.25;;;3.17;76.10
17936;BME280;9093;52.062;4.508;2023-01-25T00:24:24;104143.59;;;3.17;76.01
17936;BME280;9093;52.062;4.508;2023-01-25T00:27:05;104139.16;;;3.16;76.08
17936;BME280;9093;52.062;4.508;2023-01-25T00:29:45;104129.50;;;3.15;76.23
17936;BME280;9093;52.062;4.508;2023-01-25T00:32:31;104138.31;;;3.17;75.72
17936;BME280;9093;52.062;4.508;2023-01-25T00:35:13;104129.50;;;3.15;76.07
17936;BME280;9093;52.062;4.508;2023-01-25T00:37:54;104127.69;;;3.14;75.83
17936;BME280;9093;52.062;4.508;2023-01-25T00:40:34;104135.63;;;3.14;75.99
17936;BME280;9093;52.062;4.508;2023-01-25T00:43:14;104127.59;;;3.11;75.86
17936;BME280;9093;52.062;4.508;2023-01-25T00:46:01;104130.22;;;3.11;75.94
17936;BME280;9093;52.062;4.508;2023-01-25T00:48:41;104125.78;;;3.10;76.09
17936;BME280;9093;52.062;4.508;2023-01-25T00:51:22;104124.91;;;3.10;75.87
17936;BME280;9093;52.062;4.508;2023-01-25T00:54:03;104117.78;;;3.07;75.93
17936;BME280;9093;52.062;4.508;2023-01-25T00:56:43;104120.44;;;3.07;76.01
17936;BME280;9093;52.062;4.508;2023-01-25T00:59:24;104114.31;;;3.08;76.13
17936;BME280;9093;52.062;4.508;2023-01-25T01:02:05;104119.59;;;3.08;75.87
17936;BME280;9093;52.062;4.508;2023-01-25T01:04:45;104116.09;;;3.09;75.82
17936;BME280;9093;52.062;4.508;2023-01-25T01:07:26;104117.03;;;3.11;76.07
17936;BME280;9093;52.062;4.508;2023-01-25T01:10:07;104117.88;;;3.10;75.86
17936;BME280;9093;52.062;4.508;2023-01-25T01:12:47;104115.22;;;3.10;75.96
17936;BME280;9093;52.062;4.508;2023-01-25T01:15:27;104109.94;;;3.10;75.97
17936;BME280;9093;52.062;4.508;2023-01-25T01:18:08;104108.19;;;3.09;75.93
17936;BME280;9093;52.062;4.508;2023-01-25T01:20:50;104107.22;;;3.07;76.18
17936;BME280;9093;52.062;4.508;2023-01-25T01:23:31;104118.75;;;3.09;75.85
17936;BME280;9093;52.062;4.508;2023-01-25T01:26:13;104115.22;;;3.10;76.15
17936;BME280;9093;52.062;4.508;2023-01-25T01:28:54;104116.94;;;3.08;76.09
17936;BME280;9093;52.062;4.508;2023-01-25T01:31:34;104111.69;;;3.10;76.10
17936;BME280;9093;52.062;4.508;2023-01-25T01:34:14;104119.63;;;3.10;76.03
17936;BME280;9093;52.062;4.508;2023-01-25T01:36:54;104117.78;;;3.07;75.75
17936;BME280;9093;52.062;4.508;2023-01-25T01:39:35;104101.13;;;3.08;76.10
17936;BME280;9093;52.062;4.508;2023-01-25T01:42:15;104103.66;;;3.05;75.87
17936;BME280;9093;52.062;4.508;2023-01-25T01:44:55;104106.28;;;3.05;75.93
17936;BME280;9093;52.062;4.508;2023-01-25T01:47:41;104105.38;;;3.03;75.88
17936;BME280;9093;52.062;4.508;2023-01-25T01:50:24;104110.66;;;3.03;76.18
17936;BME280;9093;52.062;4.508;2023-01-25T01:53:05;104111.50;;;3.02;75.93
17936;BME280;9093;52.062;4.508;2023-01-25T01:55:46;104114.09;;;3.01;75.89
17936;BME280;9093;52.062;4.508;2023-01-25T01:58:27;104115.88;;;3.02;76.17
17936;BME280;9093;52.062;4.508;2023-01-25T02:01:09;104109.69;;;3.01;76.17
17936;BME280;9093;52.062;4.508;2023-01-25T02:03:50;104109.69;;;3.01;75.94
17936;BME280;9093;52.062;4.508;2023-01-25T02:06:45;104107.78;;;2.97;76.11
17936;BME280;9093;52.062;4.508;2023-01-25T02:09:28;104107.78;;;2.97;76.18
17936;BME280;9093;52.062;4.508;2023-01-25T02:12:11;104099.84;;;2.96;76.17
17936;BME280;9093;52.062;4.508;2023-01-25T02:14:53;104107.72;;;2.94;75.98
17936;BME280;9093;52.062;4.508;2023-01-25T02:17:36;104100.56;;;2.90;76.30
17936;BME280;9093;52.062;4.508;2023-01-25T02:20:27;104099.69;;;2.90;76.20
17936;BME280;9093;52.062;4.508;2023-01-25T02:25:56;104101.50;;;2.92;76.18
17936;BME280;9093;52.062;4.508;2023-01-25T02:28:46;104095.28;;;2.90;76.16
17936;BME280;9093;52.062;4.508;2023-01-25T02:31:27;104089.06;;;2.88;76.05
17936;BME280;9093;52.062;4.508;2023-01-25T02:34:08;104084.63;;;2.87;76.27
17936;BME280;9093;52.062;4.508;2023-01-25T02:36:48;104086.38;;;2.87;76.02
17936;BME280;9093;52.062;4.508;2023-01-25T02:39:28;104082.00;;;2.87;76.26
17936;BME280;9093;52.062;4.508;2023-01-25T02:42:09;104075.88;;;2.88;75.94
17936;BME280;9093;52.062;4.508;2023-01-25T02:44:50;104069.63;;;2.86;75.85
17936;BME280;9093;52.062;4.508;2023-01-25T02:47:30;104059.75;;;2.79;76.27
17936;BME280;9093;52.062;4.508;2023-01-25T02:50:11;104065.91;;;2.78;76.15
17936;BME280;9093;52.062;4.508;2023-01-25T02:52:51;104066.75;;;2.77;76.04
17936;BME280;9093;52.062;4.508;2023-01-25T02:55:31;104057.88;;;2.75;76.29
17936;BME280;9093;52.062;4.508;2023-01-25T02:58:12;104050.03;;;2.76;75.96
17936;BME280;9093;52.062;4.508;2023-01-25T03:00:52;104061.47;;;2.77;76.14
17936;BME280;9093;52.062;4.508;2023-01-25T03:03:34;104047.44;;;2.78;76.20
17936;BME280;9093;52.062;4.508;2023-01-25T03:06:15;104053.56;;;2.78;76.07
17936;BME280;9093;52.062;4.508;2023-01-25T03:08:55;104058.00;;;2.79;75.70
17936;BME280;9093;52.062;4.508;2023-01-25T03:11:35;104058.97;;;2.81;75.85
17936;BME280;9093;52.062;4.508;2023-01-25T03:14:16;104052.84;;;2.82;75.88
17936;BME280;9093;52.062;4.508;2023-01-25T03:16:56;104046.59;;;2.80;75.82
17936;BME280;9093;52.062;4.508;2023-01-25T03:19:36;104049.19;;;2.79;76.18
17936;BME280;9093;52.062;4.508;2023-01-25T03:22:16;104035.09;;;2.77;76.09
17936;BME280;9093;52.062;4.508;2023-01-25T03:24:57;104028.97;;;2.78;75.92
17936;BME280;9093;52.062;4.508;2023-01-25T03:27:37;104038.69;;;2.80;75.85
17936;BME280;9093;52.062;4.508;2023-01-25T03:30:17;104036.94;;;2.81;75.74
17936;BME280;9093;52.062;4.508;2023-01-25T03:32:58;104035.88;;;2.74;76.20
17936;BME280;9093;52.062;4.508;2023-01-25T03:35:38;104034.97;;;2.74;76.12
17936;BME280;9093;52.062;4.508;2023-01-25T03:38:18;104033.19;;;2.73;75.88
17936;BME280;9093;52.062;4.508;2023-01-25T03:41:00;104033.09;;;2.70;76.10
17936;BME280;9093;52.062;4.508;2023-01-25T03:43:40;104025.25;;;2.71;75.81
17936;BME280;9093;52.062;4.508;2023-01-25T03:46:20;104025.16;;;2.68;76.10
17936;BME280;9093;52.062;4.508;2023-01-25T03:49:00;104020.66;;;2.66;76.20
17936;BME280;9093;52.062;4.508;2023-01-25T03:51:41;104027.53;;;2.61;76.04
17936;BME280;9093;52.062;4.508;2023-01-25T03:54:21;104027.53;;;2.61;76.13
17936;BME280;9093;52.062;4.508;2023-01-25T03:57:01;104022.28;;;2.61;76.25
17936;BME280;9093;52.062;4.508;2023-01-25T03:59:42;104017.00;;;2.61;76.30
17936;BME280;9093;52.062;4.508;2023-01-25T04:02:22;104020.59;;;2.63;76.01
17936;BME280;9093;52.062;4.508;2023-01-25T04:05:02;104019.75;;;2.64;75.88
17936;BME280;9093;52.062;4.508;2023-01-25T04:07:43;104013.63;;;2.65;75.98
17936;BME280;9093;52.062;4.508;2023-01-25T04:10:23;104014.50;;;2.65;76.07
17936;BME280;9093;52.062;4.508;2023-01-25T04:13:03;104004.75;;;2.63;76.10
17936;BME280;9093;52.062;4.508;2023-01-25T04:15:44;104002.88;;;2.59;76.13
17936;BME280;9093;52.062;4.508;2023-01-25T04:18:24;104005.53;;;2.59;75.97
17936;BME280;9093;52.062;4.508;2023-01-25T04:21:04;103999.38;;;2.60;75.86
17936;BME280;9093;52.062;4.508;2023-01-25T04:23:45;103997.69;;;2.62;75.87
17936;BME280;9093;52.062;4.508;2023-01-25T04:26:25;103995.03;;;2.62;76.26
17936;BME280;9093;52.062;4.508;2023-01-25T04:29:05;103992.41;;;2.62;76.08
17936;BME280;9093;52.062;4.508;2023-01-25T04:31:47;103994.19;;;2.63;75.72
17936;BME280;9093;52.062;4.508;2023-01-25T04:34:27;103993.34;;;2.64;76.08
17936;BME280;9093;52.062;4.508;2023-01-25T04:37:07;103987.25;;;2.65;75.85
17936;BME280;9093;52.062;4.508;2023-01-25T04:39:48;103990.78;;;2.65;76.02
17936;BME280;9093;52.062;4.508;2023-01-25T04:42:28;103990.72;;;2.64;76.18
17936;BME280;9093;52.062;4.508;2023-01-25T04:45:09;103987.25;;;2.65;76.17
17936;BME280;9093;52.062;4.508;2023-01-25T04:47:55;103979.22;;;2.62;75.88
17936;BME280;9093;52.062;4.508;2023-01-25T04:50:36;103979.22;;;2.62;75.86
17936;BME280;9093;52.062;4.508;2023-01-25T04:53:17;103976.56;;;2.62;76.16
17936;BME280;9093;52.062;4.508;2023-01-25T04:55:57;103978.25;;;2.60;76.23
17936;BME280;9093;52.062;4.508;2023-01-25T04:58:37;103967.72;;;2.60;75.89
17936;BME280;9093;52.062;4.508;2023-01-25T05:01:17;103978.25;;;2.60;76.04
17936;BME280;9093;52.062;4.508;2023-01-25T05:03:58;103970.41;;;2.61;75.81
17936;BME280;9093;52.062;4.508;2023-01-25T05:06:38;103970.34;;;2.60;75.91
17936;BME280;9093;52.062;4.508;2023-01-25T05:09:19;103974.78;;;2.61;76.08
17936;BME280;9093;52.062;4.508;2023-01-25T05:12:00;103974.78;;;2.61;76.17
17936;BME280;9093;52.062;4.508;2023-01-25T05:14:40;103974.78;;;2.61;75.99
17936;BME280;9093;52.062;4.508;2023-01-25T05:17:20;103980.00;;;2.58;76.16
17936;BME280;9093;52.062;4.508;2023-01-25T05:20:01;103972.91;;;2.57;76.01
17936;BME280;9093;52.062;4.508;2023-01-25T05:22:41;103978.13;;;2.55;75.81
17936;BME280;9093;52.062;4.508;2023-01-25T05:25:21;103970.22;;;2.55;75.88
17936;BME280;9093;52.062;4.508;2023-01-25T05:28:20;103975.56;;;2.57;75.83
17936;BME280;9093;52.062;4.508;2023-01-25T05:31:03;103974.59;;;2.55;76.13
17936;BME280;9093;52.062;4.508;2023-01-25T05:33:44;103978.97;;;2.54;76.30
17936;BME280;9093;52.062;4.508;2023-01-25T05:36:24;103970.16;;;2.52;76.13
17936;BME280;9093;52.062;4.508;2023-01-25T05:39:05;103965.72;;;2.51;76.23
17936;BME280;9093;52.062;4.508;2023-01-25T05:41:45;103962.97;;;2.47;75.90
17936;BME280;9093;52.062;4.508;2023-01-25T05:44:26;103952.31;;;2.43;75.87
17936;BME280;9093;52.062;4.508;2023-01-25T05:47:11;103957.47;;;2.39;75.93
17936;BME280;9093;52.062;4.508;2023-01-25T05:49:51;103957.41;;;2.37;76.04
17936;BME280;9093;52.062;4.508;2023-01-25T05:52:32;103967.00;;;2.35;76.15
17936;BME280;9093;52.062;4.508;2023-01-25T05:55:12;103966.94;;;2.32;76.24
17936;BME280;9093;52.062;4.508;2023-01-25T05:57:55;103973.88;;;2.30;76.08
17936;BME280;9093;52.062;4.508;2023-01-25T06:00:36;103970.13;;;2.22;76.11
17936;BME280;9093;52.062;4.508;2023-01-25T06:03:16;103977.09;;;2.20;76.29
17936;BME280;9093;52.062;4.508;2023-01-25T06:05:58;103978.91;;;2.21;76.29
17936;BME280;9093;52.062;4.508;2023-01-25T06:08:38;103983.34;;;2.24;76.33
17936;BME280;9093;52.062;4.508;2023-01-25T06:11:21;103977.28;;;2.26;76.27
17936;BME280;9093;52.062;4.508;2023-01-25T06:14:02;103979.09;;;2.27;76.09
17936;BME280;9093;52.062;4.508;2023-01-25T06:16:43;103978.97;;;2.24;76.18
17936;BME280;9093;52.062;4.508;2023-01-25T06:19:23;103984.13;;;2.20;76.33
17936;BME280;9093;52.062;4.508;2023-01-25T06:22:03;103976.03;;;2.15;75.95
17936;BME280;9093;52.062;4.508;2023-01-25T06:24:44;103963.34;;;2.02;76.23
17936;BME280;9093;52.062;4.508;2023-01-25T06:27:24;103974.56;;;1.95;76.33
17936;BME280;9093;52.062;4.508;2023-01-25T06:30:05;103974.56;;;1.95;76.17
17936;BME280;9093;52.062;4.508;2023-01-25T06:32:46;103966.66;;;1.96;76.16
17936;BME280;9093;52.062;4.508;2023-01-25T06:35:27;103973.72;;;1.97;76.07
17936;BME280;9093;52.062;4.508;2023-01-25T06:38:08;103972.91;;;1.98;75.96
17936;BME280;9093;52.062;4.508;2023-01-25T06:40:48;103970.25;;;1.98;76.33
17936;BME280;9093;52.062;4.508;2023-01-25T06:43:30;103969.38;;;1.98;76.35
17936;BME280;9093;52.062;4.508;2023-01-25T06:46:11;103965.88;;;1.99;76.12
17936;BME280;9093;52.062;4.508;2023-01-25T06:48:51;103964.09;;;1.98;76.28
17936;BME280;9093;52.062;4.508;2023-01-25T06:51:31;103966.72;;;1.98;76.18
17936;BME280;9093;52.062;4.508;2023-01-25T06:54:12;103962.34;;;1.98;76.18
17936;BME280;9093;52.062;4.508;2023-01-25T06:56:52;103967.69;;;2.00;75.98
17936;BME280;9093;52.062;4.508;2023-01-25T06:59:32;103958.75;;;1.95;75.92
17936;BME280;9093;52.062;4.508;2023-01-25T07:02:14;103955.16;;;1.93;76.09
17936;BME280;9093;52.062;4.508;2023-01-25T07:04:54;103962.28;;;1.95;76.17
17936;BME280;9093;52.062;4.508;2023-01-25T07:07:34;103958.75;;;1.95;75.96
17936;BME280;9093;52.062;4.508;2023-01-25T07:10:15;103955.25;;;1.96;75.98
17936;BME280;9093;52.062;4.508;2023-01-25T07:12:55;103952.63;;;1.96;75.98
17936;BME280;9093;52.062;4.508;2023-01-25T07:15:35;103958.88;;;1.99;76.19
17936;BME280;9093;52.062;4.508;2023-01-25T07:18:16;103954.56;;;2.01;76.31
17936;BME280;9093;52.062;4.508;2023-01-25T07:21:08;103952.72;;;1.99;75.97
17936;BME280;9093;52.062;4.508;2023-01-25T07:23:49;103956.94;;;1.94;76.29
17936;BME280;9093;52.062;4.508;2023-01-25T07:26:30;103963.91;;;1.92;75.96
17936;BME280;9093;52.062;4.508;2023-01-25T07:29:13;103950.78;;;1.93;76.20
17936;BME280;9093;52.062;4.508;2023-01-25T07:31:54;103954.19;;;1.89;76.17
17936;BME280;9093;52.062;4.508;2023-01-25T07:34:34;103937.69;;;1.96;76.27
17936;BME280;9093;52.062;4.508;2023-01-25T07:37:14;103934.25;;;1.99;75.98
17936;BME280;9093;52.062;4.508;2023-01-25T07:39:54;103931.75;;;2.03;75.82
17936;BME280;9093;52.062;4.508;2023-01-25T07:42:37;103936.25;;;2.06;76.01
17936;BME280;9093;52.062;4.508;2023-01-25T07:45:18;103931.03;;;2.09;76.06
17936;BME280;9093;52.062;4.508;2023-01-25T07:47:59;103921.50;;;2.13;75.86
17936;BME280;9093;52.062;4.508;2023-01-25T07:50:39;103921.56;;;2.14;76.09
17936;BME280;9093;52.062;4.508;2023-01-25T07:53:20;103924.19;;;2.14;75.84
17936;BME280;9093;52.062;4.508;2023-01-25T07:56:00;103914.50;;;2.13;75.81
17936;BME280;9093;52.062;4.508;2023-01-25T07:58:41;103919.75;;;2.13;76.30
17936;BME280;9093;52.062;4.508;2023-01-25T08:01:23;103920.72;;;2.17;76.13
17936;BME280;9093;52.062;4.508;2023-01-25T08:04:04;103910.00;;;2.11;75.81
17936;BME280;9093;52.062;4.508;2023-01-25T08:06:44;103919.84;;;2.16;76.12
17936;BME280;9093;52.062;4.508;2023-01-25T08:09:25;103921.63;;;2.17;76.18
17936;BME280;9093;52.062;4.508;2023-01-25T08:12:06;103915.50;;;2.18;76.16
17936;BME280;9093;52.062;4.508;2023-01-25T08:14:46;103911.19;;;2.20;76.07
17936;BME280;9093;52.062;4.508;2023-01-25T08:17:29;103913.84;;;2.20;75.90
17936;BME280;9093;52.062;4.508;2023-01-25T08:20:13;103920.97;;;2.24;75.89
17936;BME280;9093;52.062;4.508;2023-01-25T08:22:53;103912.28;;;2.28;75.86
17936;BME280;9093;52.062;4.508;2023-01-25T08:25:34;103914.97;;;2.30;75.74
17936;BME280;9093;52.062;4.508;2023-01-25T08:28:14;103913.25;;;2.30;75.81
17936;BME280;9093;52.062;4.508;2023-01-25T08:31:05;103908.06;;;2.33;76.03
17936;BME280;9093;52.062;4.508;2023-01-25T08:33:46;103904.66;;;2.37;75.67
17936;BME280;9093;52.062;4.508;2023-01-25T08:36:27;103896.81;;;2.40;75.62
17936;BME280;9093;52.062;4.508;2023-01-25T08:39:10;103901.34;;;2.45;75.83
17936;BME280;9093;52.062;4.508;2023-01-25T08:41:51;103898.78;;;2.48;75.59
17936;BME280;9093;52.062;4.508;2023-01-25T08:44:31;103893.63;;;2.51;75.93
17936;BME280;9093;52.062;4.508;2023-01-25T08:47:12;103898.06;;;2.53;75.84
17936;BME280;9093;52.062;4.508;2023-01-25T08:49:52;103897.38;;;2.59;75.46
17936;BME280;9093;52.062;4.508;2023-01-25T08:52:34;103897.38;;;2.60;75.67
17936;BME280;9093;52.062;4.508;2023-01-25T08:55:14;103897.47;;;2.63;75.77
17936;BME280;9093;52.062;4.508;2023-01-25T08:57:55;103892.25;;;2.65;75.84
17936;BME280;9093;52.062;4.508;2023-01-25T09:00:37;103891.34;;;2.64;75.66
17936;BME280;9093;52.062;4.508;2023-01-25T09:03:17;103892.16;;;2.62;75.73
17936;BME280;9093;52.062;4.508;2023-01-25T09:05:58;103891.34;;;2.64;75.62
17936;BME280;9093;52.062;4.508;2023-01-25T09:08:39;103886.97;;;2.65;75.58
17936;BME280;9093;52.062;4.508;2023-01-25T09:11:21;103889.69;;;2.68;75.99
17936;BME280;9093;52.062;4.508;2023-01-25T09:14:01;103884.47;;;2.69;75.88
17936;BME280;9093;52.062;4.508;2023-01-25T09:16:42;103885.34;;;2.70;75.81
17936;BME280;9093;52.062;4.508;2023-01-25T09:19:22;103882.56;;;2.64;76.00
17936;BME280;9093;52.062;4.508;2023-01-25T09:22:02;103886.88;;;2.62;75.93
17936;BME280;9093;52.062;4.508;2023-01-25T09:24:42;103878.19;;;2.66;75.82
17936;BME280;9093;52.062;4.508;2023-01-25T09:27:24;103868.56;;;2.68;75.82
17936;BME280;9093;52.062;4.508;2023-01-25T09:30:06;103866.03;;;2.71;75.96
17936;BME280;9093;52.062;4.508;2023-01-25T09:32:50;103869.59;;;2.73;76.04
17936;BME280;9093;52.062;4.508;2023-01-25T09:35:30;103864.41;;;2.76;75.97
17936;BME280;9093;52.062;4.508;2023-01-25T09:38:10;103867.91;;;2.75;75.92
17936;BME280;9093;52.062;4.508;2023-01-25T09:46:44;103855.97;;;2.56;75.78
17936;BME280;9093;52.062;4.508;2023-01-25T09:55:51;103847.19;;;2.57;75.98
17936;BME280;9093;52.062;4.508;2023-01-25T09:58:39;103848.16;;;2.61;76.19
17936;BME280;9093;52.062;4.508;2023-01-25T10:04:20;103831.59;;;2.66;76.06
17936;BME280;9093;52.062;4.508;2023-01-25T10:07:13;103825.59;;;2.72;76.22
17936;BME280;9093;52.062;4.508;2023-01-25T10:10:15;103825.78;;;2.78;76.00
17936;BME280;9093;52.062;4.508;2023-01-25T10:12:56;103813.50;;;2.80;75.87
17936;BME280;9093;52.062;4.508;2023-01-25T10:15:40;103805.69;;;2.84;76.05
17936;BME280;9093;52.062;4.508;2023-01-25T10:18:30;103809.31;;;2.88;75.96
17936;BME280;9093;52.062;4.508;2023-01-25T10:24:09;103811.94;;;2.88;75.91
17936;BME280;9093;52.062;4.508;2023-01-25T10:27:01;103802.34;;;2.92;75.77
17936;BME280;9093;52.062;4.508;2023-01-25T10:29:41;103804.22;;;2.96;75.88
17936;BME280;9093;52.062;4.508;2023-01-25T10:32:26;103793.66;;;2.96;75.83
17936;BME280;9093;52.062;4.508;2023-01-25T10:35:22;103789.28;;;2.98;76.17
17936;BME280;9093;52.062;4.508;2023-01-25T10:38:34;103784.22;;;3.05;76.05
17936;BME280;9093;52.062;4.508;2023-01-25T10:41:20;103786.94;;;3.10;76.10
17936;BME280;9093;52.062;4.508;2023-01-25T10:44:12;103778.03;;;3.05;75.97
17936;BME280;9093;52.062;4.508;2023-01-25T10:50:00;103775.59;;;3.12;76.21
17936;BME280;9093;52.062;4.508;2023-01-25T10:52:55;103765.91;;;3.13;76.13
17936;BME280;9093;52.062;4.508;2023-01-25T10:58:52;103751.09;;;3.19;76.18
17936;BME280;9093;52.062;4.508;2023-01-25T11:01:44;103742.25;;;3.17;76.23
17936;BME280;9093;52.062;4.508;2023-01-25T11:04:35;103733.44;;;3.15;75.95
17936;BME280;9093;52.062;4.508;2023-01-25T11:07:26;103730.84;;;3.18;76.03
17936;BME280;9093;52.062;4.508;2023-01-25T11:10:32;103720.28;;;3.18;76.34
17936;BME280;9093;52.062;4.508;2023-01-25T11:18:49;103714.16;;;3.19;76.35
17936;BME280;9093;52.062;4.508;2023-01-25T11:21:32;103712.50;;;3.24;76.40
17936;BME280;9093;52.062;4.508;2023-01-25T11:27:16;103700.22;;;3.27;76.00
17936;BME280;9093;52.062;4.508;2023-01-25T11:32:43;103680.88;;;3.28;76.14
17936;BME280;9093;52.062;4.508;2023-01-25T11:35:31;103663.25;;;3.27;76.44
17936;BME280;9093;52.062;4.508;2023-01-25T11:38:18;103665.09;;;3.31;76.52
17936;BME280;9093;52.062;4.508;2023-01-25T11:41:19;103651.88;;;3.31;76.34
17936;BME280;9093;52.062;4.508;2023-01-25T11:47:12;103650.13;;;3.31;76.28
17936;BME280;9093;52.062;4.508;2023-01-25T11:53:02;103629.22;;;3.42;76.21
17936;BME280;9093;52.062;4.508;2023-01-25T11:56:10;103614.31;;;3.44;76.11
17936;BME280;9093;52.062;4.508;2023-01-25T12:02:12;103598.38;;;3.39;76.34
17936;BME280;9093;52.062;4.508;2023-01-25T12:13:57;103575.13;;;3.21;76.65
17936;BME280;9093;52.062;4.508;2023-01-25T12:17:01;103572.25;;;3.11;76.53
17936;BME280;9093;52.062;4.508;2023-01-25T12:20:12;103571.16;;;3.00;76.77
17936;BME280;9093;52.062;4.508;2023-01-25T12:26:00;103554.38;;;2.96;76.50
17936;BME280;9093;52.062;4.508;2023-01-25T12:29:03;103540.97;;;2.87;76.74
17936;BME280;9093;52.062;4.508;2023-01-25T12:31:59;103539.19;;;2.86;76.62
17936;BME280;9093;52.062;4.508;2023-01-25T12:34:46;103536.66;;;2.91;76.59
17936;BME280;9093;52.062;4.508;2023-01-25T12:37:31;103541.94;;;2.92;76.76
17936;BME280;9093;52.062;4.508;2023-01-25T12:40:18;103523.44;;;2.89;76.73
17936;BME280;9093;52.062;4.508;2023-01-25T12:43:01;103524.34;;;2.91;76.89
17936;BME280;9093;52.062;4.508;2023-01-25T12:45:44;103524.41;;;2.94;76.68
17936;BME280;9093;52.062;4.508;2023-01-25T12:48:31;103520.06;;;2.96;76.65
17936;BME280;9093;52.062;4.508;2023-01-25T12:51:15;103513.13;;;3.01;76.52
17936;BME280;9093;52.062;4.508;2023-01-25T12:53:57;103500.84;;;3.03;76.34
17936;BME280;9093;52.062;4.508;2023-01-25T12:59:32;103494.81;;;3.09;76.39
17936;BME280;9093;52.062;4.508;2023-01-25T13:02:26;103486.84;;;3.07;76.25
17936;BME280;9093;52.062;4.508;2023-01-25T13:08:03;103489.97;;;2.88;76.07
17936;BME280;9093;52.062;4.508;2023-01-25T13:10:49;103493.34;;;2.81;76.32
17936;BME280;9093;52.062;4.508;2023-01-25T13:13:30;103487.94;;;2.75;76.64
17936;BME280;9093;52.062;4.508;2023-01-25T13:16:35;103482.78;;;2.81;76.65
17936;BME280;9093;52.062;4.508;2023-01-25T13:19:21;103481.22;;;2.89;76.52
17936;BME280;9093;52.062;4.508;2023-01-25T13:22:58;103477.63;;;2.87;76.22
17936;BME280;9093;52.062;4.508;2023-01-25T13:25:39;103466.16;;;2.85;76.08
17936;BME280;9093;52.062;4.508;2023-01-25T13:28:41;103460.63;;;2.73;76.36
17936;BME280;9093;52.062;4.508;2023-01-25T13:37:29;103452.81;;;2.76;76.69
17936;BME280;9093;52.062;4.508;2023-01-25T13:40:30;103447.53;;;2.76;76.27
17936;BME280;9093;52.062;4.508;2023-01-25T13:45:51;103437.00;;;2.79;76.41
17936;BME280;9093;52.062;4.508;2023-01-25T13:48:33;103430.88;;;2.80;76.60
17936;BME280;9093;52.062;4.508;2023-01-25T13:51:16;103428.25;;;2.80;76.11
17936;BME280;9093;52.062;4.508;2023-01-25T13:53:58;103433.47;;;2.77;76.27
17936;BME280;9093;52.062;4.508;2023-01-25T13:56:39;103425.59;;;2.80;76.43
17936;BME280;9093;52.062;4.508;2023-01-25T13:59:25;103431.81;;;2.82;76.15
17936;BME280;9093;52.062;4.508;2023-01-25T14:02:19;103434.44;;;2.82;76.21
17936;BME280;9093;52.062;4.508;2023-01-25T14:05:00;103423.09;;;2.86;76.47
17936;BME280;9093;52.062;4.508;2023-01-25T14:07:42;103427.59;;;2.92;76.25
17936;BME280;9093;52.062;4.508;2023-01-25T14:10:26;103424.97;;;2.93;76.12
17936;BME280;9093;52.062;4.508;2023-01-25T14:13:13;103428.47;;;2.92;76.23
17936;BME280;9093;52.062;4.508;2023-01-25T14:16:08;103423.16;;;2.89;75.87
17936;BME280;9093;52.062;4.508;2023-01-25T14:18:48;103421.47;;;2.94;75.95
17936;BME280;9093;52.062;4.508;2023-01-25T14:21:28;103414.38;;;2.92;75.82
17936;BME280;9093;52.062;4.508;2023-01-25T14:24:09;103410.94;;;2.94;75.95
17936;BME280;9093;52.062;4.508;2023-01-25T14:26:50;103418.00;;;2.95;75.79
17936;BME280;9093;52.062;4.508;2023-01-25T14:29:32;103416.31;;;3.00;75.73
17936;BME280;9093;52.062;4.508;2023-01-25T14:32:17;103412.81;;;3.01;75.93
17936;BME280;9093;52.062;4.508;2023-01-25T14:44:18;103399.59;;;3.00;76.02
17936;BME280;9093;52.062;4.508;2023-01-25T14:47:25;103390.78;;;2.99;75.68
17936;BME280;9093;52.062;4.508;2023-01-25T14:50:30;103389.03;;;3.00;75.91
17936;BME280;9093;52.062;4.508;2023-01-25T14:53:18;103385.47;;;2.98;76.02
17936;BME280;9093;52.062;4.508;2023-01-25T14:56:00;103380.28;;;3.04;75.71
17936;BME280;9093;52.062;4.508;2023-01-25T14:58:42;103382.94;;;3.04;75.75
17936;BME280;9093;52.062;4.508;2023-01-25T15:01:37;103370.63;;;3.04;75.60
17936;BME280;9093;52.062;4.508;2023-01-25T15:04:19;103364.53;;;3.07;75.75
17936;BME280;9093;52.062;4.508;2023-01-25T15:06:59;103356.56;;;3.05;75.87
17936;BME280;9093;52.062;4.508;2023-01-25T15:09:40;103354.78;;;3.03;76.03
17936;BME280;9093;52.062;4.508;2023-01-25T15:12:28;103356.53;;;3.02;75.76
17936;BME280;9093;52.062;4.508;2023-01-25T15:15:19;103347.78;;;3.03;75.66
17936;BME280;9093;52.062;4.508;2023-01-25T15:18:01;103345.97;;;3.04;75.58
17936;BME280;9093;52.062;4.508;2023-01-25T15:20:41;103345.97;;;3.02;75.57
17936;BME280;9093;52.062;4.508;2023-01-25T15:23:25;103339.81;;;3.02;75.94
17936;BME280;9093;52.062;4.508;2023-01-25T15:26:13;103347.78;;;3.03;75.83
17936;BME280;9093;52.062;4.508;2023-01-25T15:28:55;103350.41;;;3.05;75.68
17936;BME280;9093;52.062;4.508;2023-01-25T15:31:36;103349.59;;;3.07;75.75
17936;BME280;9093;52.062;4.508;2023-01-25T15:34:23;103346.09;;;3.08;75.70
17936;BME280;9093;52.062;4.508;2023-01-25T15:37:04;103347.88;;;3.09;75.82
17936;BME280;9093;52.062;4.508;2023-01-25T15:39:45;103342.59;;;3.09;75.85
17936;BME280;9093;52.062;4.508;2023-01-25T15:42:25;103346.97;;;3.09;75.65
17936;BME280;9093;52.062;4.508;2023-01-25T15:45:09;103354.00;;;3.08;75.71
17936;BME280;9093;52.062;4.508;2023-01-25T15:47:49;103352.16;;;3.04;75.97
17936;BME280;9093;52.062;4.508;2023-01-25T15:50:29;103356.56;;;3.05;75.89
17936;BME280;9093;52.062;4.508;2023-01-25T15:53:17;103350.41;;;3.05;75.60
17936;BME280;9093;52.062;4.508;2023-01-25T15:56:01;103358.44;;;3.09;75.76
17936;BME280;9093;52.062;4.508;2023-01-25T15:58:51;103347.84;;;3.08;75.80